createdAt,value
2023-04-27T00:05:21.893Z,2.63
2023-04-27T00:15:26.592Z,2.67
2023-04-27T00:25:29.667Z,2.50
2023-04-27T00:35:34.967Z,3.40
2023-04-27T00:45:42.547Z,3.67
2023-04-27T00:55:48.558Z,3.23
2023-04-27T01:05:51.521Z,4.10
2023-04-27T01:15:55.888Z,3.30
2023-04-27T01:26:01.504Z,3.47
2023-04-27T01:36:04.792Z,3.37
2023-04-27T01:46:10.266Z,3.30
2023-04-27T01:56:13.362Z,3.70
2023-04-27T02:06:18.266Z,3.33
2023-04-27T02:16:22.589Z,3.17
2023-04-27T02:26:29.437Z,3.33
2023-04-27T02:36:33.445Z,3.43
2023-04-27T02:46:38.105Z,4.13
2023-04-27T02:56:41.134Z,3.63
2023-04-27T03:06:45.816Z,3.90
2023-04-27T03:16:48.962Z,3.10
2023-04-27T03:26:53.587Z,4.00
2023-04-27T03:36:57.942Z,3.63
2023-04-27T03:47:02.343Z,3.80
2023-04-27T03:57:05.990Z,4.33
2023-04-27T04:07:10.415Z,4.87
2023-04-27T04:17:13.345Z,4.50
2023-04-27T04:27:18.662Z,5.10
2023-04-27T04:37:21.949Z,4.83
2023-04-27T04:47:27.239Z,5.20
2023-04-27T04:57:31.267Z,4.33
2023-04-27T05:07:35.677Z,5.27
2023-04-27T05:17:38.748Z,5.30
2023-04-27T05:27:43.070Z,5.13
2023-04-27T05:37:46.201Z,5.60
2023-04-27T05:47:50.646Z,5.70
2023-04-27T05:58:07.149Z,6.53
2023-04-27T06:08:14.100Z,6.47
2023-04-27T06:18:17.369Z,6.03
2023-04-27T06:28:22.075Z,6.07
2023-04-27T06:38:26.077Z,5.60
2023-04-27T06:48:30.594Z,6.23
2023-04-27T06:58:34.105Z,6.23
2023-04-27T07:08:38.449Z,5.37
2023-04-27T07:18:43.328Z,5.77
2023-04-27T07:28:47.954Z,5.30
2023-04-27T07:38:51.266Z,6.03
2023-04-27T07:48:55.990Z,4.83
2023-04-27T07:58:58.846Z,5.20
2023-04-27T08:09:04.382Z,5.13
2023-04-27T08:19:07.343Z,5.60
2023-04-27T08:29:23.558Z,5.40
2023-04-27T08:39:29.930Z,5.67
2023-04-27T08:49:35.068Z,5.50
2023-04-27T08:59:38.006Z,4.50
2023-04-27T09:09:43.366Z,4.50
2023-04-27T09:19:46.576Z,5.33
2023-04-27T09:29:51.576Z,4.97
2023-04-27T09:39:55.058Z,4.70
2023-04-27T09:50:01.098Z,5.80
2023-04-27T10:00:16.434Z,4.80
2023-04-27T10:10:21.105Z,4.73
2023-04-27T10:20:31.493Z,5.80
2023-04-27T10:30:38.803Z,4.50
2023-04-27T10:40:42.156Z,4.97
2023-04-27T10:50:46.819Z,4.43
2023-04-27T11:00:50.097Z,5.50
2023-04-27T11:10:54.383Z,4.57
2023-04-27T11:21:08.490Z,6.27
2023-04-27T11:31:13.615Z,4.97
2023-04-27T11:41:17.877Z,3.47
2023-04-27T11:51:26.164Z,3.30
2023-04-27T12:01:37.530Z,3.90
2023-04-27T12:11:42.764Z,4.73
2023-04-27T12:21:46.693Z,4.67
2023-04-27T12:31:51.460Z,3.37
2023-04-27T12:41:55.166Z,4.33
2023-04-27T12:52:00.184Z,3.50
2023-04-27T13:02:04.217Z,4.43
2023-04-27T13:12:09.325Z,4.47
2023-04-27T13:22:12.356Z,4.13
2023-04-27T13:32:17.217Z,4.13
2023-04-27T13:42:20.617Z,3.60
2023-04-27T13:52:24.958Z,3.67
2023-04-27T14:02:29.368Z,3.50
2023-04-27T14:12:34.126Z,4.07
2023-04-27T14:22:37.501Z,3.57
2023-04-27T14:32:42.240Z,3.17
2023-04-27T14:42:45.612Z,4.20
2023-04-27T14:52:50.424Z,3.33
2023-04-27T15:02:54.454Z,3.97
2023-04-27T15:12:58.796Z,2.60
2023-04-27T15:23:01.813Z,3.03
2023-04-27T15:33:08.167Z,2.83
2023-04-27T15:43:13.386Z,2.27
2023-04-27T15:53:18.131Z,2.40
2023-04-27T16:03:21.600Z,4.67
2023-04-27T16:13:27.325Z,2.40
2023-04-27T16:23:30.598Z,3.27
2023-04-27T16:33:35.180Z,5.07
2023-04-27T16:43:38.657Z,3.20
2023-04-27T16:53:44.058Z,2.33
2023-04-27T17:03:47.863Z,2.33
2023-04-27T17:13:52.497Z,2.13
2023-04-27T17:23:55.888Z,2.20
2023-04-27T17:34:00.292Z,2.00
2023-04-27T17:44:04.214Z,2.03
2023-04-27T17:54:08.766Z,2.07
2023-04-27T18:04:12.393Z,1.70
2023-04-27T18:14:16.810Z,1.87
2023-04-27T18:24:20.049Z,1.80
2023-04-27T18:34:24.369Z,2.07
2023-04-27T18:44:27.165Z,1.80
2023-04-27T18:54:31.725Z,1.60
2023-04-27T19:04:34.723Z,1.60
2023-04-27T19:14:39.299Z,1.77
2023-04-27T19:24:42.447Z,1.77
2023-04-27T19:34:46.957Z,1.40
2023-04-27T19:44:50.089Z,1.57
2023-04-27T19:54:54.917Z,1.70
2023-04-27T20:04:59.561Z,1.97
2023-04-27T20:15:05.227Z,1.50
2023-04-27T20:25:09.240Z,1.77
2023-04-27T20:35:14.037Z,2.57
2023-04-27T20:45:17.619Z,2.33
2023-04-27T20:55:22.289Z,1.73
2023-04-27T21:05:26.018Z,2.03
2023-04-27T21:15:31.003Z,1.77
2023-04-27T21:25:34.969Z,2.63
2023-04-27T21:35:39.836Z,2.90
2023-04-27T21:45:43.095Z,3.00
2023-04-27T21:55:49.357Z,3.03
2023-04-27T22:05:52.817Z,3.63
2023-04-27T22:15:57.320Z,2.37
2023-04-27T22:26:00.344Z,2.87
2023-04-27T22:36:06.217Z,2.50
2023-04-27T22:46:09.269Z,1.80
2023-04-27T22:56:13.475Z,1.50
2023-04-27T23:06:16.880Z,1.40
2023-04-27T23:16:21.852Z,1.27
2023-04-27T23:26:24.798Z,1.30
2023-04-27T23:36:30.925Z,1.43
2023-04-27T23:46:34.114Z,1.50
2023-04-27T23:56:38.438Z,1.50
